<?xml version="1.0" encoding="UTF-8" standalone="no" ?>
<gpx xmlns="http://www.topografix.com/GPX/1/1" xmlns:xsi="http://www.w3.org/2001/XMLSchema-instance" xsi:schemaLocation="http://www.topografix.com/GPX/1/1 http://www.topografix.com/GPX/1/1/gpx.xsd" version="1.1" creator="VisuGPX - https://www.visugpx.com">
  <metadata>
    <name>13669785-Sault-Brenaz_GR3</name>
  </metadata>
  <trk>
    <name><![CDATA[13669785-Sault-Brenaz_GR3]]></name>
    <trkseg>
      <trkpt lat="45.85243" lon="5.41426">
        <ele>202</ele>
        <time>2021-09-13T19:08:42Z</time>
      </trkpt>
      <trkpt lat="45.85229" lon="5.41445">
        <ele>202</ele>
        <time>2021-09-13T19:09:08Z</time>
      </trkpt>
      <trkpt lat="45.85241" lon="5.41455">
        <ele>203</ele>
        <time>2021-09-13T19:09:26Z</time>
      </trkpt>
      <trkpt lat="45.8532" lon="5.41337">
        <ele>202</ele>
        <time>2021-09-13T19:11:58Z</time>
      </trkpt>
      <trkpt lat="45.85331" lon="5.41351">
        <ele>202</ele>
        <time>2021-09-13T19:12:18Z</time>
      </trkpt>
      <trkpt lat="45.85335" lon="5.41365">
        <ele>203</ele>
        <time>2021-09-13T19:12:32Z</time>
      </trkpt>
      <trkpt lat="45.85357" lon="5.41399">
        <ele>205</ele>
        <time>2021-09-13T19:13:15Z</time>
      </trkpt>
      <trkpt lat="45.85335" lon="5.41365">
        <ele>203</ele>
        <time>2021-09-13T19:13:58Z</time>
      </trkpt>
      <trkpt lat="45.85331" lon="5.41351">
        <ele>202</ele>
        <time>2021-09-13T19:14:12Z</time>
      </trkpt>
      <trkpt lat="45.8532" lon="5.41337">
        <ele>202</ele>
        <time>2021-09-13T19:14:32Z</time>
      </trkpt>
      <trkpt lat="45.85327" lon="5.41319">
        <ele>202</ele>
        <time>2021-09-13T19:14:51Z</time>
      </trkpt>
      <trkpt lat="45.85343" lon="5.41286">
        <ele>202</ele>
        <time>2021-09-13T19:15:29Z</time>
      </trkpt>
      <trkpt lat="45.85369" lon="5.41217">
        <ele>203</ele>
        <time>2021-09-13T19:16:41Z</time>
      </trkpt>
      <trkpt lat="45.85422" lon="5.41022">
        <ele>204</ele>
        <time>2021-09-13T19:19:56Z</time>
      </trkpt>
      <trkpt lat="45.85437" lon="5.40981">
        <ele>204</ele>
        <time>2021-09-13T19:20:39Z</time>
      </trkpt>
      <trkpt lat="45.85467" lon="5.40932">
        <ele>204</ele>
        <time>2021-09-13T19:21:40Z</time>
      </trkpt>
      <trkpt lat="45.85504" lon="5.40984">
        <ele>204</ele>
        <time>2021-09-13T19:22:49Z</time>
      </trkpt>
      <trkpt lat="45.85517" lon="5.40996">
        <ele>204</ele>
        <time>2021-09-13T19:23:09Z</time>
      </trkpt>
      <trkpt lat="45.85614" lon="5.41074">
        <ele>214</ele>
        <time>2021-09-13T19:25:38Z</time>
      </trkpt>
      <trkpt lat="45.85624" lon="5.4109">
        <ele>217</ele>
        <time>2021-09-13T19:25:58Z</time>
      </trkpt>
      <trkpt lat="45.85631" lon="5.41108">
        <ele>220</ele>
        <time>2021-09-13T19:26:17Z</time>
      </trkpt>
      <trkpt lat="45.85632" lon="5.4113">
        <ele>222</ele>
        <time>2021-09-13T19:26:37Z</time>
      </trkpt>
      <trkpt lat="45.8563" lon="5.41146">
        <ele>223</ele>
        <time>2021-09-13T19:26:52Z</time>
      </trkpt>
      <trkpt lat="45.85624" lon="5.41163">
        <ele>223</ele>
        <time>2021-09-13T19:27:10Z</time>
      </trkpt>
      <trkpt lat="45.85609" lon="5.41215">
        <ele>223</ele>
        <time>2021-09-13T19:28:03Z</time>
      </trkpt>
      <trkpt lat="45.85605" lon="5.41237">
        <ele>223</ele>
        <time>2021-09-13T19:28:24Z</time>
      </trkpt>
      <trkpt lat="45.8561" lon="5.41242">
        <ele>224</ele>
        <time>2021-09-13T19:28:32Z</time>
      </trkpt>
      <trkpt lat="45.85614" lon="5.41238">
        <ele>225</ele>
        <time>2021-09-13T19:28:38Z</time>
      </trkpt>
      <trkpt lat="45.85625" lon="5.41203">
        <ele>226</ele>
        <time>2021-09-13T19:29:14Z</time>
      </trkpt>
      <trkpt lat="45.85642" lon="5.41171">
        <ele>228</ele>
        <time>2021-09-13T19:29:51Z</time>
      </trkpt>
      <trkpt lat="45.85697" lon="5.41087">
        <ele>235</ele>
        <time>2021-09-13T19:31:39Z</time>
      </trkpt>
      <trkpt lat="45.85709" lon="5.41072">
        <ele>237</ele>
        <time>2021-09-13T19:32:00Z</time>
      </trkpt>
      <trkpt lat="45.85771" lon="5.41013">
        <ele>246</ele>
        <time>2021-09-13T19:33:39Z</time>
      </trkpt>
      <trkpt lat="45.85779" lon="5.41002">
        <ele>247</ele>
        <time>2021-09-13T19:33:54Z</time>
      </trkpt>
      <trkpt lat="45.85786" lon="5.40988">
        <ele>247</ele>
        <time>2021-09-13T19:34:10Z</time>
      </trkpt>
      <trkpt lat="45.85795" lon="5.40958">
        <ele>246</ele>
        <time>2021-09-13T19:34:40Z</time>
      </trkpt>
      <trkpt lat="45.85802" lon="5.40943">
        <ele>246</ele>
        <time>2021-09-13T19:34:57Z</time>
      </trkpt>
      <trkpt lat="45.85819" lon="5.4092">
        <ele>248</ele>
        <time>2021-09-13T19:35:28Z</time>
      </trkpt>
      <trkpt lat="45.8585" lon="5.40895">
        <ele>252</ele>
        <time>2021-09-13T19:36:16Z</time>
      </trkpt>
      <trkpt lat="45.85912" lon="5.40867">
        <ele>260</ele>
        <time>2021-09-13T19:37:42Z</time>
      </trkpt>
      <trkpt lat="45.85932" lon="5.40869">
        <ele>264</ele>
        <time>2021-09-13T19:38:09Z</time>
      </trkpt>
      <trkpt lat="45.85955" lon="5.40879">
        <ele>268</ele>
        <time>2021-09-13T19:38:41Z</time>
      </trkpt>
      <trkpt lat="45.85991" lon="5.40907">
        <ele>274</ele>
        <time>2021-09-13T19:39:36Z</time>
      </trkpt>
      <trkpt lat="45.85995" lon="5.40918">
        <ele>275</ele>
        <time>2021-09-13T19:39:47Z</time>
      </trkpt>
      <trkpt lat="45.85989" lon="5.40927">
        <ele>275</ele>
        <time>2021-09-13T19:39:59Z</time>
      </trkpt>
      <trkpt lat="45.85975" lon="5.40936">
        <ele>275</ele>
        <time>2021-09-13T19:40:19Z</time>
      </trkpt>
      <trkpt lat="45.85952" lon="5.40941">
        <ele>274</ele>
        <time>2021-09-13T19:40:50Z</time>
      </trkpt>
      <trkpt lat="45.85933" lon="5.40941">
        <ele>273</ele>
        <time>2021-09-13T19:41:16Z</time>
      </trkpt>
      <trkpt lat="45.85926" lon="5.40944">
        <ele>273</ele>
        <time>2021-09-13T19:41:25Z</time>
      </trkpt>
      <trkpt lat="45.85924" lon="5.40952">
        <ele>274</ele>
        <time>2021-09-13T19:41:33Z</time>
      </trkpt>
      <trkpt lat="45.85926" lon="5.40963">
        <ele>276</ele>
        <time>2021-09-13T19:41:44Z</time>
      </trkpt>
      <trkpt lat="45.85935" lon="5.40981">
        <ele>279</ele>
        <time>2021-09-13T19:42:05Z</time>
      </trkpt>
      <trkpt lat="45.85951" lon="5.40991">
        <ele>281</ele>
        <time>2021-09-13T19:42:28Z</time>
      </trkpt>
      <trkpt lat="45.85935" lon="5.41006">
        <ele>282</ele>
        <time>2021-09-13T19:42:53Z</time>
      </trkpt>
      <trkpt lat="45.85925" lon="5.41005">
        <ele>282</ele>
        <time>2021-09-13T19:43:07Z</time>
      </trkpt>
      <trkpt lat="45.85917" lon="5.40986">
        <ele>279</ele>
        <time>2021-09-13T19:43:27Z</time>
      </trkpt>
      <trkpt lat="45.85909" lon="5.40982">
        <ele>277</ele>
        <time>2021-09-13T19:43:39Z</time>
      </trkpt>
      <trkpt lat="45.8588" lon="5.41018">
        <ele>277</ele>
        <time>2021-09-13T19:44:30Z</time>
      </trkpt>
      <trkpt lat="45.86343" lon="5.41307">
        <ele>312</ele>
        <time>2021-09-13T19:55:43Z</time>
      </trkpt>
      <trkpt lat="45.85699" lon="5.41327">
        <ele>249</ele>
        <time>2021-09-13T20:10:03Z</time>
      </trkpt>
      <trkpt lat="45.85697" lon="5.41339">
        <ele>251</ele>
        <time>2021-09-13T20:10:15Z</time>
      </trkpt>
      <trkpt lat="45.85694" lon="5.41345">
        <ele>251</ele>
        <time>2021-09-13T20:10:21Z</time>
      </trkpt>
      <trkpt lat="45.85666" lon="5.41383">
        <ele>252</ele>
        <time>2021-09-13T20:11:13Z</time>
      </trkpt>
      <trkpt lat="45.85652" lon="5.41397">
        <ele>251</ele>
        <time>2021-09-13T20:11:36Z</time>
      </trkpt>
      <trkpt lat="45.85621" lon="5.41453">
        <ele>249</ele>
        <time>2021-09-13T20:12:42Z</time>
      </trkpt>
      <trkpt lat="45.85609" lon="5.4147">
        <ele>246</ele>
        <time>2021-09-13T20:13:05Z</time>
      </trkpt>
      <trkpt lat="45.85604" lon="5.41483">
        <ele>246</ele>
        <time>2021-09-13T20:13:18Z</time>
      </trkpt>
      <trkpt lat="45.85603" lon="5.41504">
        <ele>247</ele>
        <time>2021-09-13T20:13:38Z</time>
      </trkpt>
      <trkpt lat="45.85613" lon="5.41548">
        <ele>252</ele>
        <time>2021-09-13T20:14:21Z</time>
      </trkpt>
      <trkpt lat="45.85658" lon="5.4166">
        <ele>266</ele>
        <time>2021-09-13T20:16:21Z</time>
      </trkpt>
      <trkpt lat="45.85664" lon="5.41682">
        <ele>268</ele>
        <time>2021-09-13T20:16:43Z</time>
      </trkpt>
      <trkpt lat="45.85673" lon="5.41703">
        <ele>271</ele>
        <time>2021-09-13T20:17:06Z</time>
      </trkpt>
      <trkpt lat="45.85688" lon="5.41721">
        <ele>274</ele>
        <time>2021-09-13T20:17:32Z</time>
      </trkpt>
      <trkpt lat="45.85699" lon="5.41752">
        <ele>277</ele>
        <time>2021-09-13T20:18:04Z</time>
      </trkpt>
      <trkpt lat="45.85692" lon="5.41794">
        <ele>276</ele>
        <time>2021-09-13T20:18:45Z</time>
      </trkpt>
      <trkpt lat="45.85691" lon="5.4184">
        <ele>276</ele>
        <time>2021-09-13T20:19:27Z</time>
      </trkpt>
      <trkpt lat="45.85706" lon="5.41931">
        <ele>278</ele>
        <time>2021-09-13T20:20:54Z</time>
      </trkpt>
      <trkpt lat="45.85705" lon="5.42014">
        <ele>281</ele>
        <time>2021-09-13T20:22:11Z</time>
      </trkpt>
      <trkpt lat="45.85706" lon="5.42041">
        <ele>282</ele>
        <time>2021-09-13T20:22:37Z</time>
      </trkpt>
      <trkpt lat="45.85715" lon="5.42117">
        <ele>284</ele>
        <time>2021-09-13T20:23:48Z</time>
      </trkpt>
      <trkpt lat="45.85712" lon="5.42223">
        <ele>284</ele>
        <time>2021-09-13T20:25:27Z</time>
      </trkpt>
      <trkpt lat="45.85715" lon="5.42247">
        <ele>284</ele>
        <time>2021-09-13T20:25:49Z</time>
      </trkpt>
      <trkpt lat="45.85724" lon="5.42266">
        <ele>285</ele>
        <time>2021-09-13T20:26:11Z</time>
      </trkpt>
      <trkpt lat="45.85738" lon="5.42296">
        <ele>287</ele>
        <time>2021-09-13T20:26:44Z</time>
      </trkpt>
      <trkpt lat="45.85742" lon="5.42316">
        <ele>288</ele>
        <time>2021-09-13T20:27:04Z</time>
      </trkpt>
      <trkpt lat="45.85738" lon="5.42342">
        <ele>288</ele>
        <time>2021-09-13T20:27:28Z</time>
      </trkpt>
      <trkpt lat="45.8572" lon="5.42396">
        <ele>288</ele>
        <time>2021-09-13T20:28:24Z</time>
      </trkpt>
      <trkpt lat="45.85716" lon="5.42437">
        <ele>289</ele>
        <time>2021-09-13T20:29:03Z</time>
      </trkpt>
      <trkpt lat="45.85715" lon="5.42533">
        <ele>292</ele>
        <time>2021-09-13T20:30:32Z</time>
      </trkpt>
      <trkpt lat="45.85719" lon="5.42605">
        <ele>295</ele>
        <time>2021-09-13T20:31:39Z</time>
      </trkpt>
      <trkpt lat="45.85724" lon="5.42644">
        <ele>297</ele>
        <time>2021-09-13T20:32:16Z</time>
      </trkpt>
      <trkpt lat="45.85773" lon="5.42892">
        <ele>300</ele>
        <time>2021-09-13T20:36:15Z</time>
      </trkpt>
      <trkpt lat="45.85745" lon="5.42948">
        <ele>298</ele>
        <time>2021-09-13T20:37:19Z</time>
      </trkpt>
      <trkpt lat="45.8574" lon="5.42966">
        <ele>297</ele>
        <time>2021-09-13T20:37:37Z</time>
      </trkpt>
      <trkpt lat="45.85738" lon="5.42999">
        <ele>296</ele>
        <time>2021-09-13T20:38:08Z</time>
      </trkpt>
      <trkpt lat="45.85724" lon="5.4305">
        <ele>295</ele>
        <time>2021-09-13T20:38:59Z</time>
      </trkpt>
      <trkpt lat="45.85687" lon="5.43113">
        <ele>293</ele>
        <time>2021-09-13T20:40:16Z</time>
      </trkpt>
      <trkpt lat="45.85651" lon="5.43145">
        <ele>291</ele>
        <time>2021-09-13T20:41:12Z</time>
      </trkpt>
      <trkpt lat="45.85635" lon="5.43155">
        <ele>290</ele>
        <time>2021-09-13T20:41:36Z</time>
      </trkpt>
      <trkpt lat="45.85633" lon="5.43159">
        <ele>290</ele>
        <time>2021-09-13T20:41:40Z</time>
      </trkpt>
      <trkpt lat="45.85629" lon="5.43168">
        <ele>290</ele>
        <time>2021-09-13T20:41:50Z</time>
      </trkpt>
      <trkpt lat="45.85628" lon="5.43218">
        <ele>289</ele>
        <time>2021-09-13T20:42:37Z</time>
      </trkpt>
      <trkpt lat="45.85612" lon="5.43302">
        <ele>287</ele>
        <time>2021-09-13T20:43:57Z</time>
      </trkpt>
      <trkpt lat="45.85628" lon="5.43218">
        <ele>289</ele>
        <time>2021-09-13T20:45:18Z</time>
      </trkpt>
      <trkpt lat="45.85629" lon="5.43168">
        <ele>290</ele>
        <time>2021-09-13T20:46:05Z</time>
      </trkpt>
      <trkpt lat="45.85633" lon="5.43159">
        <ele>290</ele>
        <time>2021-09-13T20:46:15Z</time>
      </trkpt>
      <trkpt lat="45.85635" lon="5.43155">
        <ele>290</ele>
        <time>2021-09-13T20:46:19Z</time>
      </trkpt>
      <trkpt lat="45.85651" lon="5.43145">
        <ele>291</ele>
        <time>2021-09-13T20:46:43Z</time>
      </trkpt>
      <trkpt lat="45.85678" lon="5.43121">
        <ele>293</ele>
        <time>2021-09-13T20:47:25Z</time>
      </trkpt>
      <trkpt lat="45.85692" lon="5.43147">
        <ele>293</ele>
        <time>2021-09-13T20:47:56Z</time>
      </trkpt>
      <trkpt lat="45.857" lon="5.4317">
        <ele>294</ele>
        <time>2021-09-13T20:48:20Z</time>
      </trkpt>
      <trkpt lat="45.85753" lon="5.43265">
        <ele>301</ele>
        <time>2021-09-13T20:50:13Z</time>
      </trkpt>
      <trkpt lat="45.85753" lon="5.43287">
        <ele>302</ele>
        <time>2021-09-13T20:50:33Z</time>
      </trkpt>
      <trkpt lat="45.85749" lon="5.43311">
        <ele>303</ele>
        <time>2021-09-13T20:50:56Z</time>
      </trkpt>
      <trkpt lat="45.8575" lon="5.43329">
        <ele>305</ele>
        <time>2021-09-13T20:51:13Z</time>
      </trkpt>
      <trkpt lat="45.85768" lon="5.4336">
        <ele>309</ele>
        <time>2021-09-13T20:51:50Z</time>
      </trkpt>
      <trkpt lat="45.85771" lon="5.43378">
        <ele>310</ele>
        <time>2021-09-13T20:52:08Z</time>
      </trkpt>
      <trkpt lat="45.85771" lon="5.43399">
        <ele>311</ele>
        <time>2021-09-13T20:52:27Z</time>
      </trkpt>
      <trkpt lat="45.85766" lon="5.43411">
        <ele>310</ele>
        <time>2021-09-13T20:52:40Z</time>
      </trkpt>
      <trkpt lat="45.85744" lon="5.43446">
        <ele>307</ele>
        <time>2021-09-13T20:53:24Z</time>
      </trkpt>
      <trkpt lat="45.8574" lon="5.43452">
        <ele>307</ele>
        <time>2021-09-13T20:53:32Z</time>
      </trkpt>
      <trkpt lat="45.85736" lon="5.43462">
        <ele>307</ele>
        <time>2021-09-13T20:53:42Z</time>
      </trkpt>
      <trkpt lat="45.85749" lon="5.43511">
        <ele>311</ele>
        <time>2021-09-13T20:54:31Z</time>
      </trkpt>
      <trkpt lat="45.85762" lon="5.43542">
        <ele>315</ele>
        <time>2021-09-13T20:55:05Z</time>
      </trkpt>
      <trkpt lat="45.85821" lon="5.43653">
        <ele>328</ele>
        <time>2021-09-13T20:57:14Z</time>
      </trkpt>
      <trkpt lat="45.8584" lon="5.43693">
        <ele>337</ele>
        <time>2021-09-13T20:57:59Z</time>
      </trkpt>
      <trkpt lat="45.85854" lon="5.43712">
        <ele>344</ele>
        <time>2021-09-13T20:58:25Z</time>
      </trkpt>
      <trkpt lat="45.85886" lon="5.43736">
        <ele>356</ele>
        <time>2021-09-13T20:59:13Z</time>
      </trkpt>
      <trkpt lat="45.85906" lon="5.43747">
        <ele>363</ele>
        <time>2021-09-13T20:59:42Z</time>
      </trkpt>
      <trkpt lat="45.85924" lon="5.43762">
        <ele>373</ele>
        <time>2021-09-13T21:00:10Z</time>
      </trkpt>
      <trkpt lat="45.85945" lon="5.43768">
        <ele>383</ele>
        <time>2021-09-13T21:00:38Z</time>
      </trkpt>
      <trkpt lat="45.85975" lon="5.43766">
        <ele>392</ele>
        <time>2021-09-13T21:01:18Z</time>
      </trkpt>
      <trkpt lat="45.85985" lon="5.43755">
        <ele>391</ele>
        <time>2021-09-13T21:01:35Z</time>
      </trkpt>
      <trkpt lat="45.86001" lon="5.43712">
        <ele>392</ele>
        <time>2021-09-13T21:02:20Z</time>
      </trkpt>
      <trkpt lat="45.86021" lon="5.43692">
        <ele>398</ele>
        <time>2021-09-13T21:02:53Z</time>
      </trkpt>
      <trkpt lat="45.86028" lon="5.43683">
        <ele>399</ele>
        <time>2021-09-13T21:03:05Z</time>
      </trkpt>
      <trkpt lat="45.86034" lon="5.43682">
        <ele>401</ele>
        <time>2021-09-13T21:03:14Z</time>
      </trkpt>
      <trkpt lat="45.86035" lon="5.43687">
        <ele>403</ele>
        <time>2021-09-13T21:03:18Z</time>
      </trkpt>
      <trkpt lat="45.86026" lon="5.43702">
        <ele>401</ele>
        <time>2021-09-13T21:03:37Z</time>
      </trkpt>
      <trkpt lat="45.86011" lon="5.43718">
        <ele>397</ele>
        <time>2021-09-13T21:04:02Z</time>
      </trkpt>
      <trkpt lat="45.85998" lon="5.43765">
        <ele>400</ele>
        <time>2021-09-13T21:04:49Z</time>
      </trkpt>
      <trkpt lat="45.85989" lon="5.43783">
        <ele>405</ele>
        <time>2021-09-13T21:05:09Z</time>
      </trkpt>
      <trkpt lat="45.85961" lon="5.43814">
        <ele>407</ele>
        <time>2021-09-13T21:05:56Z</time>
      </trkpt>
      <trkpt lat="45.85939" lon="5.43834">
        <ele>406</ele>
        <time>2021-09-13T21:06:31Z</time>
      </trkpt>
      <trkpt lat="45.85913" lon="5.43845">
        <ele>401</ele>
        <time>2021-09-13T21:07:07Z</time>
      </trkpt>
      <trkpt lat="45.85898" lon="5.43855">
        <ele>400</ele>
        <time>2021-09-13T21:07:29Z</time>
      </trkpt>
      <trkpt lat="45.85879" lon="5.43878">
        <ele>402</ele>
        <time>2021-09-13T21:08:03Z</time>
      </trkpt>
      <trkpt lat="45.85855" lon="5.43898">
        <ele>401</ele>
        <time>2021-09-13T21:08:40Z</time>
      </trkpt>
      <trkpt lat="45.85837" lon="5.43906">
        <ele>396</ele>
        <time>2021-09-13T21:09:05Z</time>
      </trkpt>
      <trkpt lat="45.85826" lon="5.43925">
        <ele>397</ele>
        <time>2021-09-13T21:09:28Z</time>
      </trkpt>
      <trkpt lat="45.85776" lon="5.44056">
        <ele>406</ele>
        <time>2021-09-13T21:11:47Z</time>
      </trkpt>
      <trkpt lat="45.85763" lon="5.44085">
        <ele>410</ele>
        <time>2021-09-13T21:12:19Z</time>
      </trkpt>
      <trkpt lat="45.8575" lon="5.44104">
        <ele>409</ele>
        <time>2021-09-13T21:12:43Z</time>
      </trkpt>
      <trkpt lat="45.85737" lon="5.44132">
        <ele>408</ele>
        <time>2021-09-13T21:13:15Z</time>
      </trkpt>
      <trkpt lat="45.85729" lon="5.44146">
        <ele>407</ele>
        <time>2021-09-13T21:13:32Z</time>
      </trkpt>
      <trkpt lat="45.85725" lon="5.44159">
        <ele>408</ele>
        <time>2021-09-13T21:13:45Z</time>
      </trkpt>
      <trkpt lat="45.85724" lon="5.44174">
        <ele>410</ele>
        <time>2021-09-13T21:13:59Z</time>
      </trkpt>
      <trkpt lat="45.85747" lon="5.44241">
        <ele>428</ele>
        <time>2021-09-13T21:15:08Z</time>
      </trkpt>
      <trkpt lat="45.85724" lon="5.44174">
        <ele>410</ele>
        <time>2021-09-13T21:16:18Z</time>
      </trkpt>
      <trkpt lat="45.85723" lon="5.44181">
        <ele>410</ele>
        <time>2021-09-13T21:16:24Z</time>
      </trkpt>
      <trkpt lat="45.85729" lon="5.44208">
        <ele>415</ele>
        <time>2021-09-13T21:16:51Z</time>
      </trkpt>
      <trkpt lat="45.85743" lon="5.44252">
        <ele>426</ele>
        <time>2021-09-13T21:17:36Z</time>
      </trkpt>
      <trkpt lat="45.85743" lon="5.44287">
        <ele>429</ele>
        <time>2021-09-13T21:18:08Z</time>
      </trkpt>
      <trkpt lat="45.85737" lon="5.44386">
        <ele>432</ele>
        <time>2021-09-13T21:19:40Z</time>
      </trkpt>
      <trkpt lat="45.85734" lon="5.44466">
        <ele>434</ele>
        <time>2021-09-13T21:20:55Z</time>
      </trkpt>
      <trkpt lat="45.85742" lon="5.44532">
        <ele>442</ele>
        <time>2021-09-13T21:21:57Z</time>
      </trkpt>
      <trkpt lat="45.85739" lon="5.44555">
        <ele>446</ele>
        <time>2021-09-13T21:22:19Z</time>
      </trkpt>
      <trkpt lat="45.85733" lon="5.44574">
        <ele>447</ele>
        <time>2021-09-13T21:22:38Z</time>
      </trkpt>
      <trkpt lat="45.85702" lon="5.44615">
        <ele>444</ele>
        <time>2021-09-13T21:23:34Z</time>
      </trkpt>
      <trkpt lat="45.8569" lon="5.44616">
        <ele>440</ele>
        <time>2021-09-13T21:23:51Z</time>
      </trkpt>
      <trkpt lat="45.85682" lon="5.44626">
        <ele>439</ele>
        <time>2021-09-13T21:24:05Z</time>
      </trkpt>
      <trkpt lat="45.85675" lon="5.44639">
        <ele>438</ele>
        <time>2021-09-13T21:24:20Z</time>
      </trkpt>
      <trkpt lat="45.85669" lon="5.4467">
        <ele>441</ele>
        <time>2021-09-13T21:24:50Z</time>
      </trkpt>
      <trkpt lat="45.85674" lon="5.44686">
        <ele>444</ele>
        <time>2021-09-13T21:25:06Z</time>
      </trkpt>
      <trkpt lat="45.85666" lon="5.44688">
        <ele>441</ele>
        <time>2021-09-13T21:25:17Z</time>
      </trkpt>
      <trkpt lat="45.85652" lon="5.44715">
        <ele>440</ele>
        <time>2021-09-13T21:25:48Z</time>
      </trkpt>
      <trkpt lat="45.85642" lon="5.44719">
        <ele>438</ele>
        <time>2021-09-13T21:26:02Z</time>
      </trkpt>
      <trkpt lat="45.8565" lon="5.44679">
        <ele>436</ele>
        <time>2021-09-13T21:26:41Z</time>
      </trkpt>
      <trkpt lat="45.85648" lon="5.44669">
        <ele>435</ele>
        <time>2021-09-13T21:26:50Z</time>
      </trkpt>
      <trkpt lat="45.85639" lon="5.44641">
        <ele>428</ele>
        <time>2021-09-13T21:27:19Z</time>
      </trkpt>
      <trkpt lat="45.85627" lon="5.44638">
        <ele>425</ele>
        <time>2021-09-13T21:27:35Z</time>
      </trkpt>
      <trkpt lat="45.85618" lon="5.44631">
        <ele>422</ele>
        <time>2021-09-13T21:27:49Z</time>
      </trkpt>
      <trkpt lat="45.85599" lon="5.44624">
        <ele>416</ele>
        <time>2021-09-13T21:28:15Z</time>
      </trkpt>
      <trkpt lat="45.85583" lon="5.44575">
        <ele>406</ele>
        <time>2021-09-13T21:29:06Z</time>
      </trkpt>
      <trkpt lat="45.85581" lon="5.44554">
        <ele>405</ele>
        <time>2021-09-13T21:29:25Z</time>
      </trkpt>
      <trkpt lat="45.85582" lon="5.44539">
        <ele>403</ele>
        <time>2021-09-13T21:29:39Z</time>
      </trkpt>
      <trkpt lat="45.85579" lon="5.44529">
        <ele>403</ele>
        <time>2021-09-13T21:29:49Z</time>
      </trkpt>
      <trkpt lat="45.85575" lon="5.44525">
        <ele>402</ele>
        <time>2021-09-13T21:29:56Z</time>
      </trkpt>
      <trkpt lat="45.85538" lon="5.44533">
        <ele>404</ele>
        <time>2021-09-13T21:30:46Z</time>
      </trkpt>
      <trkpt lat="45.85525" lon="5.44545">
        <ele>404</ele>
        <time>2021-09-13T21:31:06Z</time>
      </trkpt>
      <trkpt lat="45.855" lon="5.44561">
        <ele>403</ele>
        <time>2021-09-13T21:31:43Z</time>
      </trkpt>
      <trkpt lat="45.85495" lon="5.44559">
        <ele>405</ele>
        <time>2021-09-13T21:31:50Z</time>
      </trkpt>
      <trkpt lat="45.85492" lon="5.44552">
        <ele>406</ele>
        <time>2021-09-13T21:31:58Z</time>
      </trkpt>
      <trkpt lat="45.85495" lon="5.44541">
        <ele>406</ele>
        <time>2021-09-13T21:32:08Z</time>
      </trkpt>
      <trkpt lat="45.8551" lon="5.4451">
        <ele>406</ele>
        <time>2021-09-13T21:32:44Z</time>
      </trkpt>
      <trkpt lat="45.85531" lon="5.44491">
        <ele>406</ele>
        <time>2021-09-13T21:33:17Z</time>
      </trkpt>
      <trkpt lat="45.85542" lon="5.44466">
        <ele>407</ele>
        <time>2021-09-13T21:33:44Z</time>
      </trkpt>
      <trkpt lat="45.85545" lon="5.44445">
        <ele>408</ele>
        <time>2021-09-13T21:34:04Z</time>
      </trkpt>
      <trkpt lat="45.85542" lon="5.44401">
        <ele>413</ele>
        <time>2021-09-13T21:34:45Z</time>
      </trkpt>
      <trkpt lat="45.85545" lon="5.44377">
        <ele>414</ele>
        <time>2021-09-13T21:35:08Z</time>
      </trkpt>
      <trkpt lat="45.85566" lon="5.44308">
        <ele>408</ele>
        <time>2021-09-13T21:36:18Z</time>
      </trkpt>
      <trkpt lat="45.85568" lon="5.44292">
        <ele>407</ele>
        <time>2021-09-13T21:36:33Z</time>
      </trkpt>
      <trkpt lat="45.85565" lon="5.44272">
        <ele>407</ele>
        <time>2021-09-13T21:36:52Z</time>
      </trkpt>
      <trkpt lat="45.85557" lon="5.44251">
        <ele>410</ele>
        <time>2021-09-13T21:37:14Z</time>
      </trkpt>
      <trkpt lat="45.85531" lon="5.44215">
        <ele>417</ele>
        <time>2021-09-13T21:38:02Z</time>
      </trkpt>
      <trkpt lat="45.85517" lon="5.44202">
        <ele>423</ele>
        <time>2021-09-13T21:38:25Z</time>
      </trkpt>
      <trkpt lat="45.85518" lon="5.44182">
        <ele>421</ele>
        <time>2021-09-13T21:38:43Z</time>
      </trkpt>
      <trkpt lat="45.85517" lon="5.44168">
        <ele>420</ele>
        <time>2021-09-13T21:38:56Z</time>
      </trkpt>
      <trkpt lat="45.85536" lon="5.44092">
        <ele>410</ele>
        <time>2021-09-13T21:40:11Z</time>
      </trkpt>
      <trkpt lat="45.85536" lon="5.44072">
        <ele>411</ele>
        <time>2021-09-13T21:40:30Z</time>
      </trkpt>
      <trkpt lat="45.8554" lon="5.44045">
        <ele>410</ele>
        <time>2021-09-13T21:40:56Z</time>
      </trkpt>
      <trkpt lat="45.85539" lon="5.43971">
        <ele>415</ele>
        <time>2021-09-13T21:42:04Z</time>
      </trkpt>
      <trkpt lat="45.85539" lon="5.44009">
        <ele>413</ele>
        <time>2021-09-13T21:42:40Z</time>
      </trkpt>
      <trkpt lat="45.85547" lon="5.43976">
        <ele>408</ele>
        <time>2021-09-13T21:43:12Z</time>
      </trkpt>
      <trkpt lat="45.85553" lon="5.4394">
        <ele>404</ele>
        <time>2021-09-13T21:43:47Z</time>
      </trkpt>
      <trkpt lat="45.85554" lon="5.43913">
        <ele>403</ele>
        <time>2021-09-13T21:44:12Z</time>
      </trkpt>
      <trkpt lat="45.85558" lon="5.4388">
        <ele>402</ele>
        <time>2021-09-13T21:44:43Z</time>
      </trkpt>
      <trkpt lat="45.85556" lon="5.43853">
        <ele>405</ele>
        <time>2021-09-13T21:45:08Z</time>
      </trkpt>
      <trkpt lat="45.8556" lon="5.43819">
        <ele>400</ele>
        <time>2021-09-13T21:45:40Z</time>
      </trkpt>
      <trkpt lat="45.85566" lon="5.43789">
        <ele>391</ele>
        <time>2021-09-13T21:46:09Z</time>
      </trkpt>
      <trkpt lat="45.85565" lon="5.43766">
        <ele>388</ele>
        <time>2021-09-13T21:46:31Z</time>
      </trkpt>
      <trkpt lat="45.85555" lon="5.43734">
        <ele>384</ele>
        <time>2021-09-13T21:47:03Z</time>
      </trkpt>
      <trkpt lat="45.85539" lon="5.43696">
        <ele>372</ele>
        <time>2021-09-13T21:47:44Z</time>
      </trkpt>
      <trkpt lat="45.8551" lon="5.43674">
        <ele>368</ele>
        <time>2021-09-13T21:48:28Z</time>
      </trkpt>
      <trkpt lat="45.85499" lon="5.43669">
        <ele>366</ele>
        <time>2021-09-13T21:48:44Z</time>
      </trkpt>
      <trkpt lat="45.85438" lon="5.43651">
        <ele>361</ele>
        <time>2021-09-13T21:50:07Z</time>
      </trkpt>
      <trkpt lat="45.8541" lon="5.43649">
        <ele>360</ele>
        <time>2021-09-13T21:50:44Z</time>
      </trkpt>
      <trkpt lat="45.85383" lon="5.43641">
        <ele>353</ele>
        <time>2021-09-13T21:51:21Z</time>
      </trkpt>
      <trkpt lat="45.85325" lon="5.43609">
        <ele>335</ele>
        <time>2021-09-13T21:52:44Z</time>
      </trkpt>
      <trkpt lat="45.85291" lon="5.43596">
        <ele>327</ele>
        <time>2021-09-13T21:53:31Z</time>
      </trkpt>
      <trkpt lat="45.85272" lon="5.43584">
        <ele>321</ele>
        <time>2021-09-13T21:53:59Z</time>
      </trkpt>
      <trkpt lat="45.85231" lon="5.43572">
        <ele>312</ele>
        <time>2021-09-13T21:54:54Z</time>
      </trkpt>
      <trkpt lat="45.85201" lon="5.43571">
        <ele>309</ele>
        <time>2021-09-13T21:55:34Z</time>
      </trkpt>
      <trkpt lat="45.85175" lon="5.43556">
        <ele>301</ele>
        <time>2021-09-13T21:56:12Z</time>
      </trkpt>
      <trkpt lat="45.85145" lon="5.43534">
        <ele>291</ele>
        <time>2021-09-13T21:56:57Z</time>
      </trkpt>
      <trkpt lat="45.85114" lon="5.43515">
        <ele>282</ele>
        <time>2021-09-13T21:57:42Z</time>
      </trkpt>
      <trkpt lat="45.85097" lon="5.43508">
        <ele>278</ele>
        <time>2021-09-13T21:58:05Z</time>
      </trkpt>
      <trkpt lat="45.85073" lon="5.43506">
        <ele>275</ele>
        <time>2021-09-13T21:58:37Z</time>
      </trkpt>
      <trkpt lat="45.85026" lon="5.43525">
        <ele>272</ele>
        <time>2021-09-13T21:59:43Z</time>
      </trkpt>
      <trkpt lat="45.85013" lon="5.43528">
        <ele>271</ele>
        <time>2021-09-13T22:00:00Z</time>
      </trkpt>
      <trkpt lat="45.85001" lon="5.43525">
        <ele>268</ele>
        <time>2021-09-13T22:00:16Z</time>
      </trkpt>
      <trkpt lat="45.84992" lon="5.43527">
        <ele>267</ele>
        <time>2021-09-13T22:00:29Z</time>
      </trkpt>
      <trkpt lat="45.8494" lon="5.43542">
        <ele>263</ele>
        <time>2021-09-13T22:01:39Z</time>
      </trkpt>
      <trkpt lat="45.84908" lon="5.43536">
        <ele>258</ele>
        <time>2021-09-13T22:02:22Z</time>
      </trkpt>
      <trkpt lat="45.84915" lon="5.43489">
        <ele>254</ele>
        <time>2021-09-13T22:03:07Z</time>
      </trkpt>
      <trkpt lat="45.84915" lon="5.43475">
        <ele>253</ele>
        <time>2021-09-13T22:03:20Z</time>
      </trkpt>
      <trkpt lat="45.84912" lon="5.43475">
        <ele>253</ele>
        <time>2021-09-13T22:03:24Z</time>
      </trkpt>
      <trkpt lat="45.84913" lon="5.43469">
        <ele>253</ele>
        <time>2021-09-13T22:03:30Z</time>
      </trkpt>
      <trkpt lat="45.84912" lon="5.43448">
        <ele>252</ele>
        <time>2021-09-13T22:03:49Z</time>
      </trkpt>
      <trkpt lat="45.84908" lon="5.4343">
        <ele>251</ele>
        <time>2021-09-13T22:04:07Z</time>
      </trkpt>
      <trkpt lat="45.84907" lon="5.43419">
        <ele>251</ele>
        <time>2021-09-13T22:04:17Z</time>
      </trkpt>
      <trkpt lat="45.84898" lon="5.43416">
        <ele>251</ele>
        <time>2021-09-13T22:04:30Z</time>
      </trkpt>
      <trkpt lat="45.84902" lon="5.43398">
        <ele>250</ele>
        <time>2021-09-13T22:04:47Z</time>
      </trkpt>
      <trkpt lat="45.84918" lon="5.43346">
        <ele>249</ele>
        <time>2021-09-13T22:05:40Z</time>
      </trkpt>
      <trkpt lat="45.84918" lon="5.43335">
        <ele>249</ele>
        <time>2021-09-13T22:05:50Z</time>
      </trkpt>
      <trkpt lat="45.84909" lon="5.43291">
        <ele>252</ele>
        <time>2021-09-13T22:06:33Z</time>
      </trkpt>
      <trkpt lat="45.84905" lon="5.43284">
        <ele>252</ele>
        <time>2021-09-13T22:06:41Z</time>
      </trkpt>
      <trkpt lat="45.84877" lon="5.43258">
        <ele>252</ele>
        <time>2021-09-13T22:07:26Z</time>
      </trkpt>
      <trkpt lat="45.8487" lon="5.43247">
        <ele>252</ele>
        <time>2021-09-13T22:07:40Z</time>
      </trkpt>
      <trkpt lat="45.84868" lon="5.4322">
        <ele>253</ele>
        <time>2021-09-13T22:08:05Z</time>
      </trkpt>
      <trkpt lat="45.84861" lon="5.43172">
        <ele>254</ele>
        <time>2021-09-13T22:08:50Z</time>
      </trkpt>
      <trkpt lat="45.8485" lon="5.4313">
        <ele>254</ele>
        <time>2021-09-13T22:09:32Z</time>
      </trkpt>
      <trkpt lat="45.84855" lon="5.43056">
        <ele>256</ele>
        <time>2021-09-13T22:10:41Z</time>
      </trkpt>
      <trkpt lat="45.84868" lon="5.4301">
        <ele>257</ele>
        <time>2021-09-13T22:11:27Z</time>
      </trkpt>
      <trkpt lat="45.84884" lon="5.42978">
        <ele>259</ele>
        <time>2021-09-13T22:12:04Z</time>
      </trkpt>
      <trkpt lat="45.84892" lon="5.42917">
        <ele>260</ele>
        <time>2021-09-13T22:13:02Z</time>
      </trkpt>
      <trkpt lat="45.84897" lon="5.42888">
        <ele>259</ele>
        <time>2021-09-13T22:13:29Z</time>
      </trkpt>
      <trkpt lat="45.849" lon="5.42847">
        <ele>259</ele>
        <time>2021-09-13T22:14:08Z</time>
      </trkpt>
      <trkpt lat="45.84881" lon="5.42756">
        <ele>256</ele>
        <time>2021-09-13T22:15:36Z</time>
      </trkpt>
      <trkpt lat="45.84878" lon="5.42713">
        <ele>254</ele>
        <time>2021-09-13T22:16:16Z</time>
      </trkpt>
      <trkpt lat="45.84882" lon="5.42689">
        <ele>254</ele>
        <time>2021-09-13T22:16:39Z</time>
      </trkpt>
      <trkpt lat="45.84894" lon="5.42652">
        <ele>253</ele>
        <time>2021-09-13T22:17:17Z</time>
      </trkpt>
      <trkpt lat="45.84928" lon="5.42612">
        <ele>251</ele>
        <time>2021-09-13T22:18:16Z</time>
      </trkpt>
      <trkpt lat="45.84934" lon="5.42583">
        <ele>249</ele>
        <time>2021-09-13T22:18:44Z</time>
      </trkpt>
      <trkpt lat="45.84937" lon="5.42557">
        <ele>249</ele>
        <time>2021-09-13T22:19:08Z</time>
      </trkpt>
      <trkpt lat="45.8495" lon="5.42511">
        <ele>248</ele>
        <time>2021-09-13T22:19:55Z</time>
      </trkpt>
      <trkpt lat="45.84973" lon="5.42469">
        <ele>249</ele>
        <time>2021-09-13T22:20:44Z</time>
      </trkpt>
      <trkpt lat="45.84976" lon="5.42451">
        <ele>250</ele>
        <time>2021-09-13T22:21:01Z</time>
      </trkpt>
      <trkpt lat="45.84972" lon="5.42385">
        <ele>251</ele>
        <time>2021-09-13T22:22:03Z</time>
      </trkpt>
      <trkpt lat="45.84973" lon="5.42354">
        <ele>252</ele>
        <time>2021-09-13T22:22:32Z</time>
      </trkpt>
      <trkpt lat="45.84977" lon="5.42328">
        <ele>253</ele>
        <time>2021-09-13T22:22:57Z</time>
      </trkpt>
      <trkpt lat="45.84981" lon="5.42317">
        <ele>254</ele>
        <time>2021-09-13T22:23:08Z</time>
      </trkpt>
      <trkpt lat="45.85008" lon="5.42186">
        <ele>256</ele>
        <time>2021-09-13T22:25:15Z</time>
      </trkpt>
      <trkpt lat="45.85021" lon="5.42117">
        <ele>256</ele>
        <time>2021-09-13T22:26:22Z</time>
      </trkpt>
      <trkpt lat="45.85034" lon="5.42074">
        <ele>256</ele>
        <time>2021-09-13T22:27:05Z</time>
      </trkpt>
      <trkpt lat="45.85043" lon="5.42054">
        <ele>256</ele>
        <time>2021-09-13T22:27:27Z</time>
      </trkpt>
      <trkpt lat="45.85053" lon="5.42046">
        <ele>256</ele>
        <time>2021-09-13T22:27:43Z</time>
      </trkpt>
      <trkpt lat="45.85066" lon="5.42025">
        <ele>256</ele>
        <time>2021-09-13T22:28:09Z</time>
      </trkpt>
      <trkpt lat="45.85078" lon="5.41976">
        <ele>255</ele>
        <time>2021-09-13T22:28:57Z</time>
      </trkpt>
      <trkpt lat="45.85086" lon="5.41928">
        <ele>254</ele>
        <time>2021-09-13T22:29:43Z</time>
      </trkpt>
      <trkpt lat="45.85099" lon="5.419">
        <ele>251</ele>
        <time>2021-09-13T22:30:14Z</time>
      </trkpt>
      <trkpt lat="45.85111" lon="5.41886">
        <ele>249</ele>
        <time>2021-09-13T22:30:35Z</time>
      </trkpt>
      <trkpt lat="45.8512" lon="5.41885">
        <ele>250</ele>
        <time>2021-09-13T22:30:47Z</time>
      </trkpt>
      <trkpt lat="45.85126" lon="5.41879">
        <ele>250</ele>
        <time>2021-09-13T22:30:57Z</time>
      </trkpt>
      <trkpt lat="45.8513" lon="5.4187">
        <ele>249</ele>
        <time>2021-09-13T22:31:06Z</time>
      </trkpt>
      <trkpt lat="45.85133" lon="5.41831">
        <ele>243</ele>
        <time>2021-09-13T22:31:43Z</time>
      </trkpt>
      <trkpt lat="45.85156" lon="5.41799">
        <ele>237</ele>
        <time>2021-09-13T22:32:26Z</time>
      </trkpt>
      <trkpt lat="45.85166" lon="5.41776">
        <ele>232</ele>
        <time>2021-09-13T22:32:51Z</time>
      </trkpt>
      <trkpt lat="45.85177" lon="5.4176">
        <ele>229</ele>
        <time>2021-09-13T22:33:12Z</time>
      </trkpt>
      <trkpt lat="45.85203" lon="5.41731">
        <ele>229</ele>
        <time>2021-09-13T22:33:56Z</time>
      </trkpt>
      <trkpt lat="45.85216" lon="5.41707">
        <ele>227</ele>
        <time>2021-09-13T22:34:24Z</time>
      </trkpt>
      <trkpt lat="45.85218" lon="5.41699">
        <ele>225</ele>
        <time>2021-09-13T22:34:32Z</time>
      </trkpt>
      <trkpt lat="45.85203" lon="5.41647">
        <ele>213</ele>
        <time>2021-09-13T22:35:24Z</time>
      </trkpt>
      <trkpt lat="45.85198" lon="5.41633">
        <ele>211</ele>
        <time>2021-09-13T22:35:39Z</time>
      </trkpt>
      <trkpt lat="45.85188" lon="5.4161">
        <ele>208</ele>
        <time>2021-09-13T22:36:04Z</time>
      </trkpt>
      <trkpt lat="45.85191" lon="5.41601">
        <ele>208</ele>
        <time>2021-09-13T22:36:13Z</time>
      </trkpt>
      <trkpt lat="45.85249" lon="5.41549">
        <ele>209</ele>
        <time>2021-09-13T22:37:45Z</time>
      </trkpt>
      <trkpt lat="45.85307" lon="5.4148">
        <ele>207</ele>
        <time>2021-09-13T22:39:25Z</time>
      </trkpt>
      <trkpt lat="45.85355" lon="5.4141">
        <ele>206</ele>
        <time>2021-09-13T22:40:56Z</time>
      </trkpt>
      <trkpt lat="45.85358" lon="5.41401">
        <ele>206</ele>
        <time>2021-09-13T22:41:06Z</time>
      </trkpt>
      <trkpt lat="45.85335" lon="5.41365">
        <ele>203</ele>
        <time>2021-09-13T22:41:51Z</time>
      </trkpt>
      <trkpt lat="45.85331" lon="5.41351">
        <ele>202</ele>
        <time>2021-09-13T22:42:05Z</time>
      </trkpt>
      <trkpt lat="45.8532" lon="5.41337">
        <ele>202</ele>
        <time>2021-09-13T22:42:25Z</time>
      </trkpt>
      <trkpt lat="45.85241" lon="5.41455">
        <ele>203</ele>
        <time>2021-09-13T22:44:57Z</time>
      </trkpt>
      <trkpt lat="45.85229" lon="5.41445">
        <ele>202</ele>
        <time>2021-09-13T22:45:15Z</time>
      </trkpt>
      <trkpt lat="45.85243" lon="5.41426">
        <ele>202</ele>
        <time>2021-09-13T22:45:41Z</time>
      </trkpt>
    </trkseg>
  </trk>
</gpx>